sensor_id;sensor_type;location;lat;lon;timestamp;temperature;humidity
61979;DHT22;47938;48.176;16.414;2022-09-12T00:00:38;15.10;96.80
61979;DHT22;47938;48.176;16.414;2022-09-12T00:03:04;15.10;96.80
61979;DHT22;47938;48.176;16.414;2022-09-12T00:05:29;15.10;96.80
61979;DHT22;47938;48.176;16.414;2022-09-12T00:07:55;15.10;96.70
61979;DHT22;47938;48.176;16.414;2022-09-12T00:10:21;15.10;96.60
61979;DHT22;47938;48.176;16.414;2022-09-12T00:12:46;15.10;96.70
61979;DHT22;47938;48.176;16.414;2022-09-12T00:15:12;15.20;96.60
61979;DHT22;47938;48.176;16.414;2022-09-12T00:17:38;15.20;96.20
61979;DHT22;47938;48.176;16.414;2022-09-12T00:20:06;15.10;96.10
61979;DHT22;47938;48.176;16.414;2022-09-12T00:22:32;15.20;96.30
61979;DHT22;47938;48.176;16.414;2022-09-12T00:24:58;15.10;96.20
61979;DHT22;47938;48.176;16.414;2022-09-12T00:27:24;15.20;96.00
61979;DHT22;47938;48.176;16.414;2022-09-12T00:29:49;15.10;95.60
61979;DHT22;47938;48.176;16.414;2022-09-12T00:32:15;15.20;95.50
61979;DHT22;47938;48.176;16.414;2022-09-12T00:34:40;15.10;95.70
61979;DHT22;47938;48.176;16.414;2022-09-12T00:37:06;15.10;95.90
61979;DHT22;47938;48.176;16.414;2022-09-12T00:39:32;15.10;96.00
61979;DHT22;47938;48.176;16.414;2022-09-12T00:41:57;15.10;95.60
61979;DHT22;47938;48.176;16.414;2022-09-12T00:46:56;15.20;95.60
61979;DHT22;47938;48.176;16.414;2022-09-12T00:50:00;15.20;95.90
61979;DHT22;47938;48.176;16.414;2022-09-12T00:52:57;15.20;96.30
61979;DHT22;47938;48.176;16.414;2022-09-12T00:55:34;15.20;96.90
61979;DHT22;47938;48.176;16.414;2022-09-12T01:00:29;15.20;97.40
61979;DHT22;47938;48.176;16.414;2022-09-12T01:03:09;15.10;97.70
61979;DHT22;47938;48.176;16.414;2022-09-12T01:05:39;15.20;98.40
61979;DHT22;47938;48.176;16.414;2022-09-12T01:08:05;15.20;98.40
61979;DHT22;47938;48.176;16.414;2022-09-12T01:10:33;15.10;98.50
61979;DHT22;47938;48.176;16.414;2022-09-12T01:13:00;15.10;99.30
61979;DHT22;47938;48.176;16.414;2022-09-12T01:15:26;15.10;99.40
61979;DHT22;47938;48.176;16.414;2022-09-12T01:21:01;15.10;99.80
61979;DHT22;47938;48.176;16.414;2022-09-12T01:38:07;15.10;99.90
61979;DHT22;47938;48.176;16.414;2022-09-12T01:40:48;15.20;99.90
61979;DHT22;47938;48.176;16.414;2022-09-12T01:43:34;15.10;99.90
61979;DHT22;47938;48.176;16.414;2022-09-12T01:46:24;15.20;99.90
61979;DHT22;47938;48.176;16.414;2022-09-12T01:49:07;15.20;99.90
61979;DHT22;47938;48.176;16.414;2022-09-12T01:51:38;15.20;99.90
61979;DHT22;47938;48.176;16.414;2022-09-12T01:54:12;15.20;99.90
61979;DHT22;47938;48.176;16.414;2022-09-12T01:56:42;15.20;99.90
61979;DHT22;47938;48.176;16.414;2022-09-12T01:59:24;15.20;99.90
61979;DHT22;47938;48.176;16.414;2022-09-12T02:02:00;15.20;99.90
61979;DHT22;47938;48.176;16.414;2022-09-12T02:04:29;15.20;99.90
61979;DHT22;47938;48.176;16.414;2022-09-12T02:07:02;15.30;99.90
61979;DHT22;47938;48.176;16.414;2022-09-12T02:09:36;15.30;99.90
61979;DHT22;47938;48.176;16.414;2022-09-12T02:12:05;15.30;99.90
61979;DHT22;47938;48.176;16.414;2022-09-12T02:14:37;15.30;99.90
61979;DHT22;47938;48.176;16.414;2022-09-12T02:17:09;15.30;99.90
61979;DHT22;47938;48.176;16.414;2022-09-12T02:19:39;15.30;99.90
61979;DHT22;47938;48.176;16.414;2022-09-12T02:22:09;15.30;99.90
61979;DHT22;47938;48.176;16.414;2022-09-12T02:24:40;15.30;99.90
61979;DHT22;47938;48.176;16.414;2022-09-12T02:27:13;15.30;99.90
61979;DHT22;47938;48.176;16.414;2022-09-12T02:29:39;15.40;99.70
61979;DHT22;47938;48.176;16.414;2022-09-12T02:32:15;15.30;99.60
61979;DHT22;47938;48.176;16.414;2022-09-12T02:37:22;15.30;99.50
61979;DHT22;47938;48.176;16.414;2022-09-12T02:39:49;15.30;99.50
61979;DHT22;47938;48.176;16.414;2022-09-12T02:42:14;15.20;99.90
61979;DHT22;47938;48.176;16.414;2022-09-12T02:44:40;15.20;99.60
61979;DHT22;47938;48.176;16.414;2022-09-12T02:47:34;15.20;99.70
61979;DHT22;47938;48.176;16.414;2022-09-12T02:50:01;15.20;99.90
61979;DHT22;47938;48.176;16.414;2022-09-12T02:52:27;15.20;99.90
61979;DHT22;47938;48.176;16.414;2022-09-12T02:54:54;15.10;99.90
61979;DHT22;47938;48.176;16.414;2022-09-12T02:57:21;15.10;99.90
61979;DHT22;47938;48.176;16.414;2022-09-12T02:59:47;15.10;99.90
61979;DHT22;47938;48.176;16.414;2022-09-12T03:02:26;15.10;99.90
61979;DHT22;47938;48.176;16.414;2022-09-12T03:19:41;15.00;99.90
61979;DHT22;47938;48.176;16.414;2022-09-12T03:22:20;14.90;99.90
61979;DHT22;47938;48.176;16.414;2022-09-12T03:27:36;14.80;99.90
61979;DHT22;47938;48.176;16.414;2022-09-12T03:30:04;14.80;99.90
61979;DHT22;47938;48.176;16.414;2022-09-12T03:32:59;14.70;99.90
61979;DHT22;47938;48.176;16.414;2022-09-12T03:35:25;14.70;99.90
61979;DHT22;47938;48.176;16.414;2022-09-12T03:37:51;14.70;99.90
61979;DHT22;47938;48.176;16.414;2022-09-12T03:40:17;14.70;99.90
61979;DHT22;47938;48.176;16.414;2022-09-12T03:42:43;14.70;99.90
61979;DHT22;47938;48.176;16.414;2022-09-12T03:45:09;14.60;99.90
61979;DHT22;47938;48.176;16.414;2022-09-12T03:47:35;14.60;99.90
61979;DHT22;47938;48.176;16.414;2022-09-12T03:50:01;14.60;99.90
61979;DHT22;47938;48.176;16.414;2022-09-12T03:52:27;14.60;99.90
61979;DHT22;47938;48.176;16.414;2022-09-12T03:54:52;14.60;99.90
61979;DHT22;47938;48.176;16.414;2022-09-12T03:57:18;14.60;99.90
61979;DHT22;47938;48.176;16.414;2022-09-12T03:59:43;14.60;99.90
61979;DHT22;47938;48.176;16.414;2022-09-12T04:02:09;14.60;99.90
61979;DHT22;47938;48.176;16.414;2022-09-12T04:04:35;14.60;99.90
61979;DHT22;47938;48.176;16.414;2022-09-12T04:07:00;14.50;99.90
61979;DHT22;47938;48.176;16.414;2022-09-12T04:09:26;14.50;99.90
61979;DHT22;47938;48.176;16.414;2022-09-12T04:11:52;14.50;99.90
61979;DHT22;47938;48.176;16.414;2022-09-12T04:14:17;14.60;99.90
61979;DHT22;47938;48.176;16.414;2022-09-12T04:16:43;14.50;99.90
61979;DHT22;47938;48.176;16.414;2022-09-12T04:19:10;14.60;99.90
61979;DHT22;47938;48.176;16.414;2022-09-12T04:21:36;14.50;99.90
61979;DHT22;47938;48.176;16.414;2022-09-12T04:24:02;14.60;99.90
61979;DHT22;47938;48.176;16.414;2022-09-12T04:26:28;14.60;99.90
61979;DHT22;47938;48.176;16.414;2022-09-12T04:28:53;14.60;99.90
61979;DHT22;47938;48.176;16.414;2022-09-12T04:31:19;14.60;99.90
61979;DHT22;47938;48.176;16.414;2022-09-12T04:33:45;14.60;99.90
61979;DHT22;47938;48.176;16.414;2022-09-12T04:36:13;14.70;99.90
61979;DHT22;47938;48.176;16.414;2022-09-12T04:38:39;14.70;99.90
61979;DHT22;47938;48.176;16.414;2022-09-12T04:41:16;14.70;99.90
61979;DHT22;47938;48.176;16.414;2022-09-12T04:43:42;14.70;99.90
61979;DHT22;47938;48.176;16.414;2022-09-12T04:46:10;14.70;99.90
61979;DHT22;47938;48.176;16.414;2022-09-12T04:48:37;14.80;99.90
61979;DHT22;47938;48.176;16.414;2022-09-12T04:51:11;14.80;99.90
61979;DHT22;47938;48.176;16.414;2022-09-12T04:53:37;14.90;99.90
61979;DHT22;47938;48.176;16.414;2022-09-12T04:56:04;14.90;99.90
61979;DHT22;47938;48.176;16.414;2022-09-12T04:58:31;15.00;99.90
61979;DHT22;47938;48.176;16.414;2022-09-12T05:01:04;15.10;99.90
61979;DHT22;47938;48.176;16.414;2022-09-12T05:03:29;15.20;99.90
61979;DHT22;47938;48.176;16.414;2022-09-12T05:05:55;15.30;99.90
61979;DHT22;47938;48.176;16.414;2022-09-12T05:08:20;15.50;99.90
61979;DHT22;47938;48.176;16.414;2022-09-12T05:10:46;15.70;99.90
61979;DHT22;47938;48.176;16.414;2022-09-12T05:13:11;15.80;98.80
61979;DHT22;47938;48.176;16.414;2022-09-12T05:15:37;16.00;97.60
61979;DHT22;47938;48.176;16.414;2022-09-12T05:18:03;16.10;96.70
61979;DHT22;47938;48.176;16.414;2022-09-12T05:20:28;16.20;96.20
61979;DHT22;47938;48.176;16.414;2022-09-12T05:22:54;16.40;94.70
61979;DHT22;47938;48.176;16.414;2022-09-12T05:25:19;16.50;94.80
61979;DHT22;47938;48.176;16.414;2022-09-12T05:27:45;16.70;92.90
61979;DHT22;47938;48.176;16.414;2022-09-12T05:30:11;16.80;91.50
61979;DHT22;47938;48.176;16.414;2022-09-12T05:32:36;16.90;90.90
61979;DHT22;47938;48.176;16.414;2022-09-12T05:35:02;17.00;90.70
61979;DHT22;47938;48.176;16.414;2022-09-12T05:37:28;16.90;90.10
61979;DHT22;47938;48.176;16.414;2022-09-12T05:39:53;17.00;89.70
61979;DHT22;47938;48.176;16.414;2022-09-12T05:42:19;17.20;88.40
61979;DHT22;47938;48.176;16.414;2022-09-12T05:44:44;17.50;83.80
61979;DHT22;47938;48.176;16.414;2022-09-12T05:47:10;17.80;81.80
61979;DHT22;47938;48.176;16.414;2022-09-12T05:49:36;18.40;79.70
61979;DHT22;47938;48.176;16.414;2022-09-12T05:52:02;19.00;72.90
61979;DHT22;47938;48.176;16.414;2022-09-12T05:54:27;19.80;69.10
61979;DHT22;47938;48.176;16.414;2022-09-12T05:56:53;20.40;66.00
61979;DHT22;47938;48.176;16.414;2022-09-12T05:59:20;21.20;62.40
61979;DHT22;47938;48.176;16.414;2022-09-12T06:01:46;21.80;60.60
61979;DHT22;47938;48.176;16.414;2022-09-12T06:04:12;22.40;57.10
61979;DHT22;47938;48.176;16.414;2022-09-12T06:06:40;22.40;55.90
61979;DHT22;47938;48.176;16.414;2022-09-12T06:09:06;22.70;55.50
61979;DHT22;47938;48.176;16.414;2022-09-12T06:11:34;22.90;54.80
61979;DHT22;47938;48.176;16.414;2022-09-12T06:14:00;23.20;54.40
61979;DHT22;47938;48.176;16.414;2022-09-12T06:16:28;23.50;51.90
61979;DHT22;47938;48.176;16.414;2022-09-12T06:18:59;24.00;50.80
61979;DHT22;47938;48.176;16.414;2022-09-12T06:21:25;24.30;50.40
61979;DHT22;47938;48.176;16.414;2022-09-12T06:23:55;24.10;49.70
61979;DHT22;47938;48.176;16.414;2022-09-12T06:26:22;23.70;50.30
61979;DHT22;47938;48.176;16.414;2022-09-12T06:28:48;23.30;51.70
61979;DHT22;47938;48.176;16.414;2022-09-12T06:31:16;23.00;51.80
61979;DHT22;47938;48.176;16.414;2022-09-12T06:33:45;22.70;53.50
61979;DHT22;47938;48.176;16.414;2022-09-12T06:36:14;22.70;53.50
61979;DHT22;47938;48.176;16.414;2022-09-12T06:38:40;22.40;54.40
61979;DHT22;47938;48.176;16.414;2022-09-12T06:41:08;22.00;54.10
61979;DHT22;47938;48.176;16.414;2022-09-12T06:43:34;21.70;55.10
61979;DHT22;47938;48.176;16.414;2022-09-12T06:46:01;21.40;56.10
61979;DHT22;47938;48.176;16.414;2022-09-12T06:48:27;21.00;57.30
61979;DHT22;47938;48.176;16.414;2022-09-12T06:51:01;20.60;59.40
61979;DHT22;47938;48.176;16.414;2022-09-12T06:53:28;20.70;58.40
61979;DHT22;47938;48.176;16.414;2022-09-12T06:56:02;20.40;59.10
61979;DHT22;47938;48.176;16.414;2022-09-12T06:58:29;20.00;59.60
61979;DHT22;47938;48.176;16.414;2022-09-12T07:01:06;19.40;62.90
61979;DHT22;47938;48.176;16.414;2022-09-12T07:03:32;19.30;63.50
61979;DHT22;47938;48.176;16.414;2022-09-12T07:06:09;18.90;64.10
61979;DHT22;47938;48.176;16.414;2022-09-12T07:08:36;19.20;64.00
61979;DHT22;47938;48.176;16.414;2022-09-12T07:11:18;19.50;63.40
61979;DHT22;47938;48.176;16.414;2022-09-12T07:13:48;19.50;62.60
61979;DHT22;47938;48.176;16.414;2022-09-12T07:16:14;19.60;62.40
61979;DHT22;47938;48.176;16.414;2022-09-12T07:18:40;19.50;63.30
61979;DHT22;47938;48.176;16.414;2022-09-12T07:21:09;19.30;63.40
61979;DHT22;47938;48.176;16.414;2022-09-12T07:23:35;19.20;64.30
61979;DHT22;47938;48.176;16.414;2022-09-12T07:26:03;19.10;65.00
61979;DHT22;47938;48.176;16.414;2022-09-12T07:28:30;19.10;64.80
61979;DHT22;47938;48.176;16.414;2022-09-12T07:30:57;19.20;64.10
61979;DHT22;47938;48.176;16.414;2022-09-12T07:33:25;19.00;65.10
61979;DHT22;47938;48.176;16.414;2022-09-12T07:35:51;19.10;64.50
61979;DHT22;47938;48.176;16.414;2022-09-12T07:38:17;18.70;65.50
61979;DHT22;47938;48.176;16.414;2022-09-12T07:40:42;18.90;66.10
61979;DHT22;47938;48.176;16.414;2022-09-12T07:43:08;19.20;64.80
61979;DHT22;47938;48.176;16.414;2022-09-12T07:45:34;19.30;64.00
61979;DHT22;47938;48.176;16.414;2022-09-12T07:47:59;19.30;64.60
61979;DHT22;47938;48.176;16.414;2022-09-12T07:50:25;19.50;63.90
61979;DHT22;47938;48.176;16.414;2022-09-12T07:52:53;19.50;63.30
61979;DHT22;47938;48.176;16.414;2022-09-12T07:55:18;19.40;63.70
61979;DHT22;47938;48.176;16.414;2022-09-12T07:57:44;19.10;65.00
61979;DHT22;47938;48.176;16.414;2022-09-12T08:00:13;19.10;64.60
61979;DHT22;47938;48.176;16.414;2022-09-12T08:02:39;19.40;64.60
61979;DHT22;47938;48.176;16.414;2022-09-12T08:05:04;19.80;63.50
61979;DHT22;47938;48.176;16.414;2022-09-12T08:07:30;20.00;61.20
61979;DHT22;47938;48.176;16.414;2022-09-12T08:09:56;19.80;61.50
61979;DHT22;47938;48.176;16.414;2022-09-12T08:12:21;19.50;62.50
61979;DHT22;47938;48.176;16.414;2022-09-12T08:14:47;19.40;62.40
61979;DHT22;47938;48.176;16.414;2022-09-12T08:17:12;19.50;62.30
61979;DHT22;47938;48.176;16.414;2022-09-12T08:19:38;19.50;62.80
61979;DHT22;47938;48.176;16.414;2022-09-12T08:22:04;19.90;62.60
61979;DHT22;47938;48.176;16.414;2022-09-12T08:24:29;20.10;61.30
61979;DHT22;47938;48.176;16.414;2022-09-12T08:26:55;19.90;61.60
61979;DHT22;47938;48.176;16.414;2022-09-12T08:29:21;20.20;61.00
61979;DHT22;47938;48.176;16.414;2022-09-12T08:31:46;20.40;59.90
61979;DHT22;47938;48.176;16.414;2022-09-12T08:34:12;20.60;59.30
61979;DHT22;47938;48.176;16.414;2022-09-12T08:36:37;20.80;58.90
61979;DHT22;47938;48.176;16.414;2022-09-12T08:39:05;20.60;58.50
61979;DHT22;47938;48.176;16.414;2022-09-12T08:46:33;19.90;60.90
61979;DHT22;47938;48.176;16.414;2022-09-12T08:49:01;19.70;62.10
61979;DHT22;47938;48.176;16.414;2022-09-12T08:51:29;20.10;60.90
61979;DHT22;47938;48.176;16.414;2022-09-12T08:53:57;20.20;60.50
61979;DHT22;47938;48.176;16.414;2022-09-12T08:56:25;20.80;59.70
61979;DHT22;47938;48.176;16.414;2022-09-12T08:58:52;20.90;58.70
61979;DHT22;47938;48.176;16.414;2022-09-12T09:01:28;20.50;58.10
61979;DHT22;47938;48.176;16.414;2022-09-12T09:15:10;20.90;57.70
61979;DHT22;47938;48.176;16.414;2022-09-12T09:17:39;21.20;55.40
61979;DHT22;47938;48.176;16.414;2022-09-12T09:22:53;21.90;53.90
61979;DHT22;47938;48.176;16.414;2022-09-12T09:25:25;21.20;53.30
61979;DHT22;47938;48.176;16.414;2022-09-12T09:28:03;21.40;54.70
61979;DHT22;47938;48.176;16.414;2022-09-12T09:30:29;21.40;54.30
61979;DHT22;47938;48.176;16.414;2022-09-12T09:32:59;21.00;55.50
61979;DHT22;47938;48.176;16.414;2022-09-12T09:38:37;20.30;56.00
61979;DHT22;47938;48.176;16.414;2022-09-12T09:41:35;20.20;57.50
61979;DHT22;47938;48.176;16.414;2022-09-12T09:44:01;20.50;57.00
61979;DHT22;47938;48.176;16.414;2022-09-12T09:46:27;20.60;56.30
61979;DHT22;47938;48.176;16.414;2022-09-12T09:48:54;20.20;57.20
61979;DHT22;47938;48.176;16.414;2022-09-12T09:51:25;20.10;57.80
61979;DHT22;47938;48.176;16.414;2022-09-12T09:54:15;20.20;58.40
61979;DHT22;47938;48.176;16.414;2022-09-12T09:56:42;20.60;58.00
61979;DHT22;47938;48.176;16.414;2022-09-12T09:59:29;20.90;55.20
61979;DHT22;47938;48.176;16.414;2022-09-12T10:04:39;20.70;56.10
61979;DHT22;47938;48.176;16.414;2022-09-12T10:07:05;20.80;54.50
61979;DHT22;47938;48.176;16.414;2022-09-12T10:09:41;20.90;54.90
61979;DHT22;47938;48.176;16.414;2022-09-12T10:12:39;20.80;55.90
61979;DHT22;47938;48.176;16.414;2022-09-12T10:15:25;21.00;55.70
61979;DHT22;47938;48.176;16.414;2022-09-12T10:17:51;21.30;54.00
61979;DHT22;47938;48.176;16.414;2022-09-12T10:23:31;20.90;54.10
61979;DHT22;47938;48.176;16.414;2022-09-12T10:26:01;20.70;54.20
61979;DHT22;47938;48.176;16.414;2022-09-12T10:30:59;20.80;54.40
61979;DHT22;47938;48.176;16.414;2022-09-12T10:33:25;20.50;55.20
61979;DHT22;47938;48.176;16.414;2022-09-12T10:35:52;20.70;55.70
61979;DHT22;47938;48.176;16.414;2022-09-12T10:38:27;21.20;54.60
61979;DHT22;47938;48.176;16.414;2022-09-12T10:41:10;21.40;52.70
61979;DHT22;47938;48.176;16.414;2022-09-12T10:43:38;21.20;52.90
61979;DHT22;47938;48.176;16.414;2022-09-12T10:48:39;21.30;52.70
61979;DHT22;47938;48.176;16.414;2022-09-12T10:51:11;21.30;53.30
61979;DHT22;47938;48.176;16.414;2022-09-12T10:53:45;21.30;53.20
61979;DHT22;47938;48.176;16.414;2022-09-12T11:01:38;22.30;51.00
61979;DHT22;47938;48.176;16.414;2022-09-12T11:04:26;22.60;49.60
61979;DHT22;47938;48.176;16.414;2022-09-12T11:15:50;22.50;49.80
61979;DHT22;47938;48.176;16.414;2022-09-12T11:35:30;22.50;50.20
61979;DHT22;47938;48.176;16.414;2022-09-12T11:41:05;22.70;49.50
61979;DHT22;47938;48.176;16.414;2022-09-12T11:43:36;23.00;48.80
61979;DHT22;47938;48.176;16.414;2022-09-12T11:48:49;22.70;48.70
61979;DHT22;47938;48.176;16.414;2022-09-12T11:51:39;22.70;48.70
61979;DHT22;47938;48.176;16.414;2022-09-12T11:54:11;22.50;48.40
61979;DHT22;47938;48.176;16.414;2022-09-12T11:56:41;22.40;48.90
61979;DHT22;47938;48.176;16.414;2022-09-12T11:59:11;22.70;48.40
61979;DHT22;47938;48.176;16.414;2022-09-12T12:01:40;23.00;48.10
61979;DHT22;47938;48.176;16.414;2022-09-12T12:04:11;23.10;47.30
61979;DHT22;47938;48.176;16.414;2022-09-12T12:06:59;22.90;47.00
61979;DHT22;47938;48.176;16.414;2022-09-12T12:09:26;22.80;47.80
61979;DHT22;47938;48.176;16.414;2022-09-12T12:11:53;23.10;47.60
61979;DHT22;47938;48.176;16.414;2022-09-12T12:14:37;23.40;46.80
61979;DHT22;47938;48.176;16.414;2022-09-12T12:17:16;23.40;46.40
61979;DHT22;47938;48.176;16.414;2022-09-12T12:19:44;23.40;46.20
61979;DHT22;47938;48.176;16.414;2022-09-12T12:22:17;23.70;46.30
61979;DHT22;47938;48.176;16.414;2022-09-12T12:27:49;23.40;46.30
61979;DHT22;47938;48.176;16.414;2022-09-12T12:33:00;23.40;45.80
61979;DHT22;47938;48.176;16.414;2022-09-12T12:38:02;24.20;45.30
61979;DHT22;47938;48.176;16.414;2022-09-12T12:40:29;24.40;44.10
61979;DHT22;47938;48.176;16.414;2022-09-12T12:48:00;24.20;43.60
61979;DHT22;47938;48.176;16.414;2022-09-12T12:50:32;23.60;44.60
61979;DHT22;47938;48.176;16.414;2022-09-12T12:58:26;23.80;45.00
61979;DHT22;47938;48.176;16.414;2022-09-12T13:01:12;23.50;45.50
61979;DHT22;47938;48.176;16.414;2022-09-12T13:03:51;23.00;47.10
61979;DHT22;47938;48.176;16.414;2022-09-12T13:06:39;22.60;48.00
61979;DHT22;47938;48.176;16.414;2022-09-12T13:09:17;22.60;48.60
61979;DHT22;47938;48.176;16.414;2022-09-12T13:11:44;22.50;48.10
61979;DHT22;47938;48.176;16.414;2022-09-12T13:17:13;22.50;44.20
61979;DHT22;47938;48.176;16.414;2022-09-12T13:19:40;22.50;44.70
61979;DHT22;47938;48.176;16.414;2022-09-12T13:22:08;22.70;44.70
61979;DHT22;47938;48.176;16.414;2022-09-12T13:24:42;22.90;44.80
61979;DHT22;47938;48.176;16.414;2022-09-12T13:27:22;23.00;45.50
61979;DHT22;47938;48.176;16.414;2022-09-12T13:29:48;23.10;44.80
61979;DHT22;47938;48.176;16.414;2022-09-12T13:32:15;23.30;44.10
61979;DHT22;47938;48.176;16.414;2022-09-12T13:42:39;22.90;45.00
61979;DHT22;47938;48.176;16.414;2022-09-12T13:45:25;22.80;45.50
61979;DHT22;47938;48.176;16.414;2022-09-12T13:47:54;22.90;44.70
61979;DHT22;47938;48.176;16.414;2022-09-12T13:50:26;22.90;45.00
61979;DHT22;47938;48.176;16.414;2022-09-12T13:53:21;22.80;45.80
61979;DHT22;47938;48.176;16.414;2022-09-12T13:55:54;22.60;47.20
61979;DHT22;47938;48.176;16.414;2022-09-12T13:58:32;22.00;50.70
61979;DHT22;47938;48.176;16.414;2022-09-12T14:01:05;21.60;52.20
61979;DHT22;47938;48.176;16.414;2022-09-12T14:03:37;21.50;52.80
61979;DHT22;47938;48.176;16.414;2022-09-12T14:06:03;21.30;53.20
61979;DHT22;47938;48.176;16.414;2022-09-12T14:08:30;21.10;54.00
61979;DHT22;47938;48.176;16.414;2022-09-12T14:10:56;21.00;54.70
61979;DHT22;47938;48.176;16.414;2022-09-12T14:13:24;20.90;54.90
61979;DHT22;47938;48.176;16.414;2022-09-12T14:15:52;20.90;55.20
61979;DHT22;47938;48.176;16.414;2022-09-12T14:18:28;21.00;54.20
61979;DHT22;47938;48.176;16.414;2022-09-12T14:20:56;21.00;54.20
61979;DHT22;47938;48.176;16.414;2022-09-12T14:23:29;21.00;53.30
61979;DHT22;47938;48.176;16.414;2022-09-12T14:25:57;21.00;53.00
61979;DHT22;47938;48.176;16.414;2022-09-12T14:28:24;21.00;52.20
61979;DHT22;47938;48.176;16.414;2022-09-12T14:31:24;20.90;52.90
61979;DHT22;47938;48.176;16.414;2022-09-12T14:33:55;21.00;52.60
61979;DHT22;47938;48.176;16.414;2022-09-12T14:36:24;21.00;52.10
61979;DHT22;47938;48.176;16.414;2022-09-12T14:39:05;21.10;50.70
61979;DHT22;47938;48.176;16.414;2022-09-12T14:41:37;21.00;50.50
61979;DHT22;47938;48.176;16.414;2022-09-12T14:44:07;21.00;50.80
61979;DHT22;47938;48.176;16.414;2022-09-12T14:46:36;21.00;50.90
61979;DHT22;47938;48.176;16.414;2022-09-12T14:51:39;21.10;50.50
61979;DHT22;47938;48.176;16.414;2022-09-12T15:07:37;21.20;50.80
61979;DHT22;47938;48.176;16.414;2022-09-12T15:10:15;21.20;50.60
61979;DHT22;47938;48.176;16.414;2022-09-12T15:12:42;21.20;50.60
61979;DHT22;47938;48.176;16.414;2022-09-12T15:15:18;21.20;50.70
61979;DHT22;47938;48.176;16.414;2022-09-12T15:17:45;21.10;50.70
61979;DHT22;47938;48.176;16.414;2022-09-12T15:20:11;21.10;50.80
61979;DHT22;47938;48.176;16.414;2022-09-12T15:22:39;21.00;50.50
61979;DHT22;47938;48.176;16.414;2022-09-12T15:25:06;21.10;50.30
61979;DHT22;47938;48.176;16.414;2022-09-12T15:27:31;21.20;49.50
61979;DHT22;47938;48.176;16.414;2022-09-12T15:29:57;21.20;49.00
61979;DHT22;47938;48.176;16.414;2022-09-12T15:32:25;21.20;49.40
61979;DHT22;47938;48.176;16.414;2022-09-12T15:34:51;21.30;49.60
61979;DHT22;47938;48.176;16.414;2022-09-12T15:37:18;21.30;49.40
61979;DHT22;47938;48.176;16.414;2022-09-12T15:39:45;21.30;49.30
61979;DHT22;47938;48.176;16.414;2022-09-12T15:42:11;21.20;49.70
61979;DHT22;47938;48.176;16.414;2022-09-12T15:44:38;21.10;49.30
61979;DHT22;47938;48.176;16.414;2022-09-12T15:47:03;21.00;49.20
61979;DHT22;47938;48.176;16.414;2022-09-12T15:49:29;21.00;49.60
61979;DHT22;47938;48.176;16.414;2022-09-12T15:51:55;20.90;49.20
61979;DHT22;47938;48.176;16.414;2022-09-12T15:54:20;20.90;49.00
61979;DHT22;47938;48.176;16.414;2022-09-12T15:56:46;20.90;49.40
61979;DHT22;47938;48.176;16.414;2022-09-12T15:59:11;20.90;49.60
61979;DHT22;47938;48.176;16.414;2022-09-12T16:01:37;20.90;49.90
61979;DHT22;47938;48.176;16.414;2022-09-12T16:04:03;20.80;49.50
61979;DHT22;47938;48.176;16.414;2022-09-12T16:06:28;20.80;49.60
61979;DHT22;47938;48.176;16.414;2022-09-12T16:08:54;20.70;50.10
61979;DHT22;47938;48.176;16.414;2022-09-12T16:11:24;20.70;50.40
61979;DHT22;47938;48.176;16.414;2022-09-12T16:13:53;20.60;50.40
61979;DHT22;47938;48.176;16.414;2022-09-12T16:16:20;20.60;50.60
61979;DHT22;47938;48.176;16.414;2022-09-12T16:18:45;20.60;51.10
61979;DHT22;47938;48.176;16.414;2022-09-12T16:21:11;20.60;50.90
61979;DHT22;47938;48.176;16.414;2022-09-12T16:23:36;20.50;51.10
61979;DHT22;47938;48.176;16.414;2022-09-12T16:26:04;20.40;51.10
61979;DHT22;47938;48.176;16.414;2022-09-12T16:28:30;20.40;51.50
61979;DHT22;47938;48.176;16.414;2022-09-12T16:30:58;20.40;52.00
61979;DHT22;47938;48.176;16.414;2022-09-12T16:33:24;20.30;51.90
61979;DHT22;47938;48.176;16.414;2022-09-12T16:35:50;20.30;52.30
61979;DHT22;47938;48.176;16.414;2022-09-12T16:38:22;20.30;52.50
61979;DHT22;47938;48.176;16.414;2022-09-12T16:40:48;20.20;52.70
61979;DHT22;47938;48.176;16.414;2022-09-12T16:43:14;20.20;53.20
61979;DHT22;47938;48.176;16.414;2022-09-12T16:45:39;20.10;53.60
61979;DHT22;47938;48.176;16.414;2022-09-12T16:48:05;20.00;54.00
61979;DHT22;47938;48.176;16.414;2022-09-12T16:50:30;20.00;54.50
61979;DHT22;47938;48.176;16.414;2022-09-12T16:52:57;19.90;54.70
61979;DHT22;47938;48.176;16.414;2022-09-12T16:55:23;19.90;55.90
61979;DHT22;47938;48.176;16.414;2022-09-12T16:57:48;19.90;55.10
61979;DHT22;47938;48.176;16.414;2022-09-12T17:00:14;19.80;55.40
61979;DHT22;47938;48.176;16.414;2022-09-12T17:02:40;19.70;55.70
61979;DHT22;47938;48.176;16.414;2022-09-12T17:05:06;19.70;56.00
61979;DHT22;47938;48.176;16.414;2022-09-12T17:07:31;19.60;56.30
61979;DHT22;47938;48.176;16.414;2022-09-12T17:09:57;19.60;56.60
61979;DHT22;47938;48.176;16.414;2022-09-12T17:12:22;19.50;56.60
61979;DHT22;47938;48.176;16.414;2022-09-12T17:14:48;19.50;56.90
61979;DHT22;47938;48.176;16.414;2022-09-12T17:17:14;19.50;57.10
61979;DHT22;47938;48.176;16.414;2022-09-12T17:19:39;19.40;56.70
61979;DHT22;47938;48.176;16.414;2022-09-12T17:22:05;19.40;56.50
61979;DHT22;47938;48.176;16.414;2022-09-12T17:24:31;19.30;56.50
61979;DHT22;47938;48.176;16.414;2022-09-12T17:26:56;19.30;56.40
61979;DHT22;47938;48.176;16.414;2022-09-12T17:29:22;19.30;56.20
61979;DHT22;47938;48.176;16.414;2022-09-12T17:31:48;19.30;56.00
61979;DHT22;47938;48.176;16.414;2022-09-12T17:34:13;19.30;56.00
61979;DHT22;47938;48.176;16.414;2022-09-12T17:36:39;19.20;56.20
61979;DHT22;47938;48.176;16.414;2022-09-12T17:39:05;19.00;58.30
61979;DHT22;47938;48.176;16.414;2022-09-12T17:41:31;18.90;59.30
61979;DHT22;47938;48.176;16.414;2022-09-12T17:43:58;18.70;60.80
61979;DHT22;47938;48.176;16.414;2022-09-12T17:46:28;18.60;61.40
61979;DHT22;47938;48.176;16.414;2022-09-12T17:48:56;18.50;62.20
61979;DHT22;47938;48.176;16.414;2022-09-12T17:51:23;18.50;62.60
61979;DHT22;47938;48.176;16.414;2022-09-12T17:53:55;18.40;62.90
61979;DHT22;47938;48.176;16.414;2022-09-12T17:56:21;18.40;63.40
61979;DHT22;47938;48.176;16.414;2022-09-12T17:58:47;18.30;63.70
61979;DHT22;47938;48.176;16.414;2022-09-12T18:01:13;18.20;64.10
61979;DHT22;47938;48.176;16.414;2022-09-12T18:03:39;18.20;64.50
61979;DHT22;47938;48.176;16.414;2022-09-12T18:06:04;18.10;65.00